createdAt,value
2022-12-11T00:01:23.727Z,101306.28
2022-12-11T00:03:50.388Z,101311.50
2022-12-11T00:06:20.094Z,101313.97
2022-12-11T00:08:46.614Z,101305.38
2022-12-11T00:11:14.878Z,101310.28
2022-12-11T00:13:41.966Z,101303.44
2022-12-11T00:16:08.636Z,101305.16
2022-12-11T00:18:35.443Z,101300.06
2022-12-11T00:21:06.749Z,101302.50
2022-12-11T00:23:35.520Z,101305.88
2022-12-11T00:26:06.866Z,101299.97
2022-12-11T00:28:34.318Z,101305.88
2022-12-11T00:31:07.178Z,101301.56
2022-12-11T00:33:33.836Z,101300.75
2022-12-11T00:36:00.591Z,101302.50
2022-12-11T00:38:27.427Z,101299.97
2022-12-11T00:40:58.463Z,101304.13
2022-12-11T00:43:24.855Z,101297.41
2022-12-11T00:45:51.207Z,101299.03
2022-12-11T00:48:18.559Z,101293.81
2022-12-11T00:50:44.940Z,101296.34
2022-12-11T00:53:11.343Z,101290.34
2022-12-11T00:55:39.790Z,101286.13
2022-12-11T00:58:07.053Z,101286.78
2022-12-11T01:00:34.167Z,101286.78
2022-12-11T01:03:00.697Z,101285.03
2022-12-11T01:05:27.441Z,101279.91
2022-12-11T01:07:53.843Z,101283.16
2022-12-11T01:10:26.227Z,101280.59
2022-12-11T01:12:59.044Z,101277.94
2022-12-11T01:15:29.110Z,101281.41
2022-12-11T01:17:56.397Z,101272.03
2022-12-11T01:20:24.736Z,101277.16
2022-12-11T01:22:59.262Z,101277.94
2022-12-11T01:25:27.720Z,101284.72
2022-12-11T01:27:55.375Z,101282.84
2022-12-11T01:30:23.971Z,101288.66
2022-12-11T01:32:50.532Z,101282.75
2022-12-11T01:35:17.874Z,101294.63
2022-12-11T01:37:44.699Z,101288.56
2022-12-11T01:40:14.694Z,101284.41
2022-12-11T01:42:41.143Z,101286.94
2022-12-11T01:45:27.084Z,101284.50
2022-12-11T01:48:02.200Z,101286.94
2022-12-11T01:50:31.301Z,101286.94
2022-12-11T01:52:57.846Z,101291.13
2022-12-11T01:55:24.386Z,101287.66
2022-12-11T01:57:52.707Z,101286.94
2022-12-11T02:00:20.412Z,101286.84
2022-12-11T02:02:46.988Z,101282.53
2022-12-11T02:05:13.711Z,101279.88
2022-12-11T02:07:47.703Z,101275.69
2022-12-11T02:10:14.631Z,101275.69
2022-12-11T02:13:14.701Z,101268.94
2022-12-11T02:16:00.541Z,101274.88
2022-12-11T02:18:38.934Z,101272.22
2022-12-11T02:21:23.625Z,101267.09
2022-12-11T02:24:31.287Z,101265.34
2022-12-11T02:27:32.172Z,101263.50
2022-12-11T02:30:06.568Z,101259.22
2022-12-11T02:32:39.632Z,101254.91
2022-12-11T02:35:13.267Z,101256.56
2022-12-11T02:37:43.726Z,101253.16
2022-12-11T02:40:14.435Z,101254.00
2022-12-11T02:42:43.405Z,101252.25
2022-12-11T02:45:12.448Z,101248.06
2022-12-11T02:47:39.411Z,101252.16
2022-12-11T02:50:11.506Z,101252.16
2022-12-11T02:52:40.829Z,101253.69
2022-12-11T02:55:10.512Z,101251.94
2022-12-11T02:57:45.781Z,101251.94
2022-12-11T03:00:13.001Z,101246.81
2022-12-11T03:02:40.908Z,101256.09
2022-12-11T03:05:09.195Z,101255.28
2022-12-11T03:07:38.524Z,101250.19
2022-12-11T03:10:07.087Z,101249.97
2022-12-11T03:12:38.765Z,101245.78
2022-12-11T03:15:10.490Z,101254.16
2022-12-11T03:18:01.141Z,101252.41
2022-12-11T03:20:38.026Z,101256.72
2022-12-11T03:23:25.757Z,101258.34
2022-12-11T03:26:03.952Z,101260.91
2022-12-11T03:28:39.799Z,101256.63
2022-12-11T03:31:11.367Z,101261.75
2022-12-11T03:33:41.055Z,101258.25
2022-12-11T03:36:11.992Z,101258.97
2022-12-11T03:38:49.071Z,101255.56
2022-12-11T03:41:18.583Z,101257.22
2022-12-11T03:43:45.998Z,101260.59
2022-12-11T03:46:14.298Z,101257.22
2022-12-11T03:48:43.011Z,101251.28
2022-12-11T03:51:09.664Z,101259.88
2022-12-11T03:53:38.221Z,101253.00
2022-12-11T03:56:07.088Z,101245.44
2022-12-11T03:58:33.582Z,101242.91
2022-12-11T04:00:59.973Z,101235.22
2022-12-11T04:03:26.402Z,101241.28
2022-12-11T04:05:55.540Z,101243.72
2022-12-11T04:08:22.808Z,101238.63
2022-12-11T04:11:09.604Z,101248.00
2022-12-11T04:13:36.966Z,101243.72
2022-12-11T04:16:03.968Z,101240.22
2022-12-11T04:18:50.282Z,101240.22
2022-12-11T04:21:39.436Z,101236.88
2022-12-11T04:24:15.599Z,101243.84
2022-12-11T04:26:44.246Z,101241.28
2022-12-11T04:29:10.604Z,101242.91
2022-12-11T04:31:37.046Z,101232.78
2022-12-11T04:34:03.909Z,101237.06
2022-12-11T04:36:30.278Z,101226.84
2022-12-11T04:38:56.638Z,101225.09
2022-12-11T04:41:23.009Z,101230.31
2022-12-11T04:43:49.446Z,101226.03
2022-12-11T04:46:21.670Z,101223.38
2022-12-11T04:48:53.773Z,101228.38
2022-12-11T04:51:23.333Z,101223.16
2022-12-11T04:53:49.803Z,101216.50
2022-12-11T04:56:16.686Z,101216.41
2022-12-11T04:58:44.301Z,101222.44
2022-12-11T05:01:14.113Z,101216.50
2022-12-11T05:03:41.480Z,101221.63
2022-12-11T05:06:09.099Z,101220.81
2022-12-11T05:08:36.988Z,101222.53
2022-12-11T05:11:06.772Z,101226.75
2022-12-11T05:13:33.533Z,101230.22
2022-12-11T05:16:00.057Z,101226.03
2022-12-11T05:18:26.483Z,101231.25
2022-12-11T05:20:58.147Z,101238.19
2022-12-11T05:23:25.225Z,101231.38
2022-12-11T05:26:00.089Z,101231.25
2022-12-11T05:28:29.330Z,101226.16
2022-12-11T05:30:57.866Z,101225.22
2022-12-11T05:33:24.994Z,101231.25
2022-12-11T05:35:51.611Z,101218.69
2022-12-11T05:38:18.451Z,101215.91
2022-12-11T05:40:45.161Z,101215.91
2022-12-11T05:43:11.532Z,101221.03
2022-12-11T05:45:38.336Z,101214.28
2022-12-11T05:48:04.933Z,101214.97
2022-12-11T05:50:31.316Z,101215.91
2022-12-11T05:52:57.752Z,101222.66
2022-12-11T05:55:24.086Z,101215.91
2022-12-11T05:57:50.444Z,101215.91
2022-12-11T06:00:16.803Z,101217.75
2022-12-11T06:02:43.265Z,101219.59
2022-12-11T06:05:09.926Z,101211.03
2022-12-11T06:07:36.466Z,101213.56
2022-12-11T06:10:02.884Z,101201.72
2022-12-11T06:12:29.834Z,101203.34
2022-12-11T06:14:56.491Z,101203.34
2022-12-11T06:17:22.857Z,101200.69
2022-12-11T06:19:49.225Z,101194.03
2022-12-11T06:22:15.607Z,101206.00
2022-12-11T06:24:41.954Z,101204.16
2022-12-11T06:27:09.054Z,101203.34
2022-12-11T06:29:35.671Z,101204.16
2022-12-11T06:32:02.162Z,101201.72
2022-12-11T06:34:28.813Z,101206.94
2022-12-11T06:36:55.245Z,101208.69
2022-12-11T06:39:21.614Z,101206.94
2022-12-11T06:41:48.255Z,101212.97
2022-12-11T06:44:14.625Z,101206.13
2022-12-11T06:46:40.991Z,101218.09
2022-12-11T06:49:07.462Z,101217.25
2022-12-11T06:51:33.969Z,101223.31
2022-12-11T06:54:00.346Z,101218.31
2022-12-11T06:56:26.816Z,101226.78
2022-12-11T06:58:53.517Z,101230.38
2022-12-11T07:01:24.214Z,101219.31
2022-12-11T07:04:01.590Z,101222.69
2022-12-11T07:06:28.592Z,101217.56
2022-12-11T07:08:55.758Z,101224.44
2022-12-11T07:11:23.152Z,101231.31
2022-12-11T07:13:49.725Z,101216.88
2022-12-11T07:16:17.578Z,101233.16
2022-12-11T07:18:49.240Z,101233.16
2022-12-11T07:21:16.158Z,101243.28
2022-12-11T07:23:42.592Z,101230.50
2022-12-11T07:26:11.934Z,101227.94
2022-12-11T07:28:38.690Z,101225.25
2022-12-11T07:31:06.907Z,101231.41
2022-12-11T07:33:33.827Z,101233.97
2022-12-11T07:36:04.870Z,101233.16
2022-12-11T07:38:31.958Z,101236.53
2022-12-11T07:41:06.782Z,101237.44
2022-12-11T07:43:34.309Z,101236.53
2022-12-11T07:46:09.325Z,101243.28
2022-12-11T07:48:36.593Z,101241.75
2022-12-11T07:51:29.664Z,101244.19
2022-12-11T07:53:58.768Z,101240.94
2022-12-11T07:56:26.087Z,101242.56
2022-12-11T07:58:52.452Z,101250.22
2022-12-11T08:01:21.425Z,101255.53
2022-12-11T08:03:48.744Z,101251.38
2022-12-11T08:06:15.649Z,101252.97
2022-12-11T08:08:42.381Z,101246.25
2022-12-11T08:11:11.957Z,101252.97
2022-12-11T08:13:38.478Z,101246.97
2022-12-11T08:16:06.117Z,101251.25
2022-12-11T08:18:34.107Z,101247.75
2022-12-11T08:21:08.346Z,101255.53
2022-12-11T08:23:35.173Z,101251.38
2022-12-11T08:26:11.570Z,101249.72
2022-12-11T08:28:37.978Z,101253.09
2022-12-11T08:31:06.406Z,101253.72
2022-12-11T08:33:33.404Z,101252.19
2022-12-11T08:36:03.325Z,101257.28
2022-12-11T08:38:29.688Z,101256.47
2022-12-11T08:40:56.094Z,101254.72
2022-12-11T08:43:22.449Z,101245.41
2022-12-11T08:45:49.301Z,101248.91
2022-12-11T08:48:15.724Z,101251.38
2022-12-11T08:50:42.322Z,101249.72
2022-12-11T08:53:08.711Z,101253.09
2022-12-11T08:55:35.151Z,101250.44
2022-12-11T08:58:01.577Z,101247.66
2022-12-11T09:00:27.973Z,101239.19
2022-12-11T09:02:54.352Z,101242.88
2022-12-11T09:05:20.729Z,101239.41
2022-12-11T09:07:47.111Z,101248.50
2022-12-11T09:10:13.522Z,101246.25
2022-12-11T09:12:40.436Z,101244.03
2022-12-11T09:15:07.163Z,101239.72
2022-12-11T09:17:35.090Z,101237.75
2022-12-11T09:20:01.740Z,101239.41
2022-12-11T09:22:28.481Z,101231.63
2022-12-11T09:24:54.806Z,101234.88
2022-12-11T09:27:21.368Z,101226.88
2022-12-11T09:29:47.832Z,101226.69
2022-12-11T09:32:14.170Z,101230.31
2022-12-11T09:34:40.558Z,101229.78
2022-12-11T09:37:06.911Z,101224.25
2022-12-11T09:39:33.312Z,101218.44
2022-12-11T09:42:16.883Z,101223.44
2022-12-11T09:44:50.494Z,101227.72
2022-12-11T09:47:38.422Z,101223.22
2022-12-11T09:50:10.693Z,101219.28
2022-12-11T09:53:05.796Z,101222.09
2022-12-11T09:55:43.180Z,101215.34
2022-12-11T09:58:38.941Z,101213.28
2022-12-11T10:01:22.047Z,101212.13
2022-12-11T10:04:13.374Z,101216.13
2022-12-11T10:06:48.705Z,101208.69
2022-12-11T10:09:27.751Z,101214.50
2022-12-11T10:12:12.681Z,101216.38
2022-12-11T10:15:15.097Z,101208.38
2022-12-11T10:17:44.605Z,101216.75
2022-12-11T10:20:24.422Z,101215.69
2022-12-11T10:22:53.637Z,101218.50
2022-12-11T10:25:30.142Z,101220.00
2022-12-11T10:27:57.493Z,101215.56
2022-12-11T10:30:28.414Z,101205.22
2022-12-11T10:33:14.433Z,101209.31
2022-12-11T10:35:47.780Z,101204.06
2022-12-11T10:38:32.703Z,101207.09
2022-12-11T10:41:02.467Z,101203.63
2022-12-11T10:43:43.291Z,101200.13
2022-12-11T10:46:26.762Z,101193.75
2022-12-11T10:48:58.594Z,101198.88
2022-12-11T10:51:32.521Z,101204.78
2022-12-11T10:54:30.544Z,101198.88
2022-12-11T10:56:58.743Z,101186.88
2022-12-11T10:59:33.988Z,101191.75
2022-12-11T11:02:00.591Z,101193.25
2022-12-11T11:04:35.542Z,101193.25
2022-12-11T11:07:34.500Z,101194.53
2022-12-11T11:10:27.199Z,101186.97
2022-12-11T11:13:01.286Z,101186.50
2022-12-11T11:15:30.290Z,101193.47
2022-12-11T11:18:03.768Z,101178.59
2022-12-11T11:20:31.490Z,101178.84
2022-12-11T11:23:01.798Z,101172.19
2022-12-11T11:25:30.932Z,101179.53
2022-12-11T11:28:03.640Z,101170.47
2022-12-11T11:30:39.640Z,101163.25
2022-12-11T11:33:18.901Z,101165.13
2022-12-11T11:35:57.569Z,101165.47
2022-12-11T11:38:28.230Z,101158.94
2022-12-11T11:41:10.143Z,101166.75
2022-12-11T11:43:51.063Z,101161.72
2022-12-11T11:46:28.920Z,101164.06
2022-12-11T11:49:20.554Z,101160.25
2022-12-11T11:51:53.980Z,101156.38
2022-12-11T11:54:20.270Z,101149.28
2022-12-11T11:56:49.529Z,101154.50
2022-12-11T11:59:26.694Z,101149.28
2022-12-11T12:01:56.114Z,101149.16
2022-12-11T12:04:22.784Z,101153.25
2022-12-11T12:07:01.607Z,101151.03
2022-12-11T12:09:44.481Z,101150.00
2022-12-11T12:12:22.961Z,101143.91
2022-12-11T12:15:30.538Z,101150.78
2022-12-11T12:18:20.866Z,101148.34
2022-12-11T12:20:55.306Z,101144.03
2022-12-11T12:23:58.900Z,101143.91
2022-12-11T12:26:36.996Z,101142.06
2022-12-11T12:29:29.151Z,101141.34
2022-12-11T12:31:55.515Z,101133.78
2022-12-11T12:34:38.919Z,101140.78
2022-12-11T12:37:23.899Z,101138.22
2022-12-11T12:40:27.974Z,101134.25
2022-12-11T12:43:05.926Z,101137.06
2022-12-11T12:45:49.594Z,101134.63
2022-12-11T12:48:16.547Z,101136.34
2022-12-11T12:50:48.156Z,101129.50
2022-12-11T12:53:20.368Z,101133.53
2022-12-11T12:55:48.438Z,101132.84
2022-12-11T12:58:40.429Z,101131.81
2022-12-11T13:01:12.969Z,101130.97
2022-12-11T13:03:53.808Z,101132.75
2022-12-11T13:06:50.972Z,101129.25
2022-12-11T13:09:28.361Z,101133.31
2022-12-11T13:11:57.927Z,101134.84
2022-12-11T13:14:32.416Z,101135.88
2022-12-11T13:17:19.666Z,101144.75
2022-12-11T13:19:48.147Z,101142.31
2022-12-11T13:22:14.527Z,101140.44
2022-12-11T13:24:49.872Z,101131.44
2022-12-11T13:27:25.282Z,101135.09
2022-12-11T13:29:52.581Z,101140.09
2022-12-11T13:32:18.911Z,101142.41
2022-12-11T13:34:53.551Z,101141.59
2022-12-11T13:37:29.796Z,101140.78
2022-12-11T13:39:57.043Z,101145.31
2022-12-11T13:42:44.272Z,101143.91
2022-12-11T13:45:36.958Z,101143.91
2022-12-11T13:48:05.839Z,101146.25
2022-12-11T13:50:34.644Z,101143.22
2022-12-11T13:53:02.693Z,101141.72
2022-12-11T13:55:32.471Z,101135.78
2022-12-11T13:57:59.215Z,101139.88
2022-12-11T14:00:31.311Z,101150.34
2022-12-11T14:03:12.185Z,101153.00
2022-12-11T14:05:41.584Z,101152.44
2022-12-11T14:08:10.518Z,101155.91
2022-12-11T14:10:38.056Z,101153.25
2022-12-11T14:13:29.557Z,101150.09
2022-12-11T14:15:56.207Z,101161.50
2022-12-11T14:18:31.678Z,101152.31
2022-12-11T14:21:01.417Z,101149.66
2022-12-11T14:23:31.157Z,101149.66
2022-12-11T14:26:24.940Z,101153.34
2022-12-11T14:28:52.087Z,101158.69
2022-12-11T14:31:34.385Z,101155.22
2022-12-11T14:34:21.306Z,101154.66
2022-12-11T14:36:49.450Z,101152.78
2022-12-11T14:39:22.517Z,101149.25
2022-12-11T14:42:13.476Z,101159.66
2022-12-11T14:44:50.300Z,101154.53
2022-12-11T14:47:21.612Z,101152.78
2022-12-11T14:49:59.062Z,101159.88
2022-12-11T14:52:35.878Z,101151.25
2022-12-11T14:55:21.657Z,101152.09
2022-12-11T14:57:57.883Z,101156.59
2022-12-11T15:00:36.806Z,101150.78
2022-12-11T15:03:07.491Z,101156.97
2022-12-11T15:05:40.632Z,101156.00
2022-12-11T15:08:10.627Z,101156.97
2022-12-11T15:10:55.044Z,101161.47
2022-12-11T15:13:24.733Z,101157.41
2022-12-11T15:15:52.964Z,101161.59
2022-12-11T15:18:27.146Z,101158.22
2022-12-11T15:20:56.367Z,101163.44
2022-12-11T15:23:22.800Z,101165.22
2022-12-11T15:26:07.500Z,101161.94
2022-12-11T15:28:36.769Z,101167.19
2022-12-11T15:31:25.477Z,101166.56
2022-12-11T15:33:52.019Z,101170.06
2022-12-11T15:36:31.161Z,101164.84
2022-12-11T15:38:58.395Z,101170.06
2022-12-11T15:41:25.383Z,101176.13
2022-12-11T15:43:58.686Z,101186.25
2022-12-11T15:46:25.470Z,101177.75
2022-12-11T15:48:51.987Z,101177.75
2022-12-11T15:51:18.701Z,101190.56
2022-12-11T15:53:45.235Z,101184.72
2022-12-11T15:56:16.759Z,101185.53
2022-12-11T15:58:45.770Z,101191.81
2022-12-11T16:01:17.947Z,101193.56
2022-12-11T16:03:45.846Z,101184.94
2022-12-11T16:06:13.855Z,101185.78
2022-12-11T16:08:40.539Z,101183.31
2022-12-11T16:11:07.008Z,101191.13
2022-12-11T16:13:33.398Z,101192.88
2022-12-11T16:15:59.856Z,101188.66
2022-12-11T16:18:26.971Z,101182.50
2022-12-11T16:20:53.474Z,101182.38
2022-12-11T16:23:20.492Z,101182.63
2022-12-11T16:25:47.262Z,101185.19
2022-12-11T16:28:15.554Z,101183.53
2022-12-11T16:30:43.510Z,101180.19
2022-12-11T16:33:13.134Z,101185.19
2022-12-11T16:35:40.380Z,101176.78
2022-12-11T16:38:07.778Z,101179.44
2022-12-11T16:40:34.203Z,101187.13
2022-12-11T16:43:00.587Z,101182.13
2022-12-11T16:45:27.387Z,101183.88
2022-12-11T16:47:54.064Z,101183.97
2022-12-11T16:50:20.890Z,101183.06
2022-12-11T16:52:47.416Z,101175.41
2022-12-11T16:55:14.836Z,101176.09
2022-12-11T16:57:41.993Z,101173.75
2022-12-11T17:00:11.987Z,101181.44
2022-12-11T17:02:38.467Z,101178.06
2022-12-11T17:05:06.167Z,101176.19
2022-12-11T17:07:33.100Z,101178.06
2022-12-11T17:10:01.755Z,101174.56
2022-12-11T17:12:28.485Z,101178.88
2022-12-11T17:14:55.917Z,101178.88
2022-12-11T17:17:22.667Z,101172.94
2022-12-11T17:19:49.231Z,101182.38
2022-12-11T17:22:15.597Z,101178.16
2022-12-11T17:24:41.938Z,101177.38
2022-12-11T17:27:08.295Z,101180.72
2022-12-11T17:29:34.758Z,101175.63
2022-12-11T17:32:03.111Z,101170.13
2022-12-11T17:34:36.038Z,101177.81
2022-12-11T17:37:04.489Z,101176.97
2022-12-11T17:39:31.217Z,101174.41
2022-12-11T17:41:57.642Z,101179.53
2022-12-11T17:44:24.477Z,101179.78
2022-12-11T17:46:50.868Z,101180.69
2022-12-11T17:49:17.342Z,101187.31
2022-12-11T17:51:43.726Z,101178.94
2022-12-11T17:54:10.133Z,101174.88
2022-12-11T17:56:36.825Z,101185.91
2022-12-11T17:59:03.687Z,101185.81
2022-12-11T18:01:30.395Z,101183.25
2022-12-11T18:03:59.979Z,101179.78
2022-12-11T18:06:26.462Z,101184.06
2022-12-11T18:08:52.847Z,101184.06
2022-12-11T18:11:21.732Z,101186.50
2022-12-11T18:13:49.155Z,101192.56
2022-12-11T18:16:21.895Z,101189.06
2022-12-11T18:18:50.211Z,101195.13
2022-12-11T18:21:23.962Z,101188.38
2022-12-11T18:23:50.668Z,101187.66
2022-12-11T18:26:18.768Z,101188.47
2022-12-11T18:28:45.966Z,101191.84
2022-12-11T18:31:13.516Z,101191.03
2022-12-11T18:33:42.430Z,101186.72
2022-12-11T18:36:09.433Z,101184.28
2022-12-11T18:38:36.158Z,101187.56
2022-12-11T18:41:04.874Z,101189.41
2022-12-11T18:43:31.297Z,101191.84
2022-12-11T18:45:57.839Z,101198.72
2022-12-11T18:48:24.555Z,101197.06
2022-12-11T18:50:52.477Z,101194.63
2022-12-11T18:53:19.551Z,101201.47
2022-12-11T18:55:48.107Z,101202.28
2022-12-11T18:58:18.664Z,101207.50
2022-12-11T19:00:46.450Z,101204.25
2022-12-11T19:03:14.043Z,101212.88
2022-12-11T19:05:42.548Z,101194.84
2022-12-11T19:08:10.135Z,101193.44
2022-12-11T19:10:44.889Z,101189.13
2022-12-11T19:13:12.038Z,101195.19
2022-12-11T19:15:40.447Z,101187.84
2022-12-11T19:18:07.069Z,101194.69
2022-12-11T19:21:01.591Z,101192.38
2022-12-11T19:23:23.239Z,101198.28
2022-12-11T19:25:50.490Z,101189.09
2022-12-11T19:28:17.434Z,101198.50
2022-12-11T19:30:45.555Z,101201.97
2022-12-11T19:33:12.116Z,101199.53
2022-12-11T19:35:38.592Z,101188.59
2022-12-11T19:38:05.070Z,101198.03
2022-12-11T19:40:31.490Z,101190.47
2022-12-11T19:42:57.947Z,101205.81
2022-12-11T19:45:24.327Z,101194.72
2022-12-11T19:47:50.727Z,101203.25
2022-12-11T19:50:17.253Z,101202.53
2022-12-11T19:52:46.369Z,101208.69
2022-12-11T19:55:14.914Z,101201.91
2022-12-11T19:57:41.254Z,101206.13
2022-12-11T20:00:08.306Z,101207.97
2022-12-11T20:02:35.365Z,101210.44
2022-12-11T20:05:01.746Z,101203.66
2022-12-11T20:07:30.766Z,101203.66
2022-12-11T20:10:00.165Z,101207.13
2022-12-11T20:12:26.662Z,101214.81
2022-12-11T20:14:53.060Z,101212.34
2022-12-11T20:17:19.545Z,101214.00
2022-12-11T20:19:45.938Z,101216.44
2022-12-11T20:22:12.433Z,101219.81
2022-12-11T20:24:38.955Z,101218.09
2022-12-11T20:27:05.369Z,101220.03
2022-12-11T20:29:32.332Z,101215.75
2022-12-11T20:32:00.379Z,101213.41
2022-12-11T20:34:27.215Z,101215.38
2022-12-11T20:36:54.097Z,101213.94
2022-12-11T20:39:20.571Z,101215.41
2022-12-11T20:41:46.965Z,101221.22
2022-12-11T20:44:13.343Z,101215.19
2022-12-11T20:46:39.728Z,101208.53
2022-12-11T20:49:12.544Z,101215.31
2022-12-11T20:51:40.255Z,101223.78
2022-12-11T20:54:06.853Z,101222.03
2022-12-11T20:56:33.289Z,101221.13
2022-12-11T20:59:00.601Z,101226.22
2022-12-11T21:01:29.494Z,101226.34
2022-12-11T21:03:56.307Z,101225.31
2022-12-11T21:06:28.754Z,101226.13
2022-12-11T21:08:55.238Z,101225.31
2022-12-11T21:11:22.136Z,101224.38
2022-12-11T21:13:48.585Z,101224.38
2022-12-11T21:16:15.010Z,101220.19
2022-12-11T21:18:43.424Z,101221.91
2022-12-11T21:21:10.120Z,101223.88
2022-12-11T21:23:36.575Z,101226.34
2022-12-11T21:26:03.335Z,101220.31
2022-12-11T21:28:35.178Z,101227.03
2022-12-11T21:31:04.430Z,101222.75
2022-12-11T21:33:31.202Z,101216.00
2022-12-11T21:35:58.891Z,101220.19
2022-12-11T21:38:26.033Z,101213.44
2022-12-11T21:40:53.501Z,101221.13
2022-12-11T21:43:19.957Z,101220.91
2022-12-11T21:46:02.458Z,101212.00
2022-12-11T21:48:29.151Z,101218.97
2022-12-11T21:50:56.177Z,101221.31
2022-12-11T21:53:22.908Z,101227.88
2022-12-11T21:55:49.290Z,101228.78
2022-12-11T21:58:15.668Z,101224.59
2022-12-11T22:00:42.196Z,101223.66
2022-12-11T22:03:08.602Z,101236.16
2022-12-11T22:05:35.344Z,101227.56
2022-12-11T22:08:02.228Z,101231.66
2022-12-11T22:10:29.059Z,101234.31
2022-12-11T22:12:55.796Z,101235.84
2022-12-11T22:15:22.282Z,101235.13
2022-12-11T22:17:48.634Z,101236.88
2022-12-11T22:20:14.994Z,101241.06
2022-12-11T22:22:41.627Z,101231.66
2022-12-11T22:25:08.502Z,101236.66
2022-12-11T22:27:35.265Z,101239.31
2022-12-11T22:30:01.684Z,101241.97
2022-12-11T22:32:28.030Z,101242.78
2022-12-11T22:34:56.213Z,101237.56
2022-12-11T22:37:22.629Z,101247.09
2022-12-11T22:39:49.079Z,101242.78
2022-12-11T22:42:15.620Z,101252.22
2022-12-11T22:44:42.239Z,101252.91
2022-12-11T22:47:08.633Z,101254.66
2022-12-11T22:49:35.775Z,101239.44
2022-12-11T22:52:02.127Z,101242.78
2022-12-11T22:54:28.526Z,101248.75
2022-12-11T22:56:54.918Z,101254.66
2022-12-11T22:59:21.313Z,101243.72
2022-12-11T23:01:47.666Z,101249.66
2022-12-11T23:04:14.065Z,101243.72
2022-12-11T23:06:40.759Z,101243.94
2022-12-11T23:09:07.388Z,101249.84
2022-12-11T23:11:37.664Z,101246.59
2022-12-11T23:14:05.466Z,101254.25
2022-12-11T23:16:31.859Z,101248.44
2022-12-11T23:18:58.569Z,101253.47
2022-12-11T23:21:26.407Z,101249.16
2022-12-11T23:23:53.066Z,101248.56
2022-12-11T23:26:19.891Z,101246.91
2022-12-11T23:28:47.196Z,101242.59
2022-12-11T23:31:14.664Z,101248.44
2022-12-11T23:33:41.245Z,101250.06
2022-12-11T23:36:08.642Z,101251.00
2022-12-11T23:38:35.100Z,101245.06
2022-12-11T23:41:02.404Z,101248.34
2022-12-11T23:43:29.010Z,101247.50
2022-12-11T23:45:55.666Z,101251.72
2022-12-11T23:48:22.086Z,101249.34
2022-12-11T23:50:48.636Z,101250.91
2022-12-11T23:53:15.207Z,101245.16
2022-12-11T23:55:44.246Z,101247.50
2022-12-11T23:58:11.148Z,101252.72
